< Typhoon 199202 1992 Season Typhoon 199204 >
Typhoon 199203 (BOBBIE)
General InformationTrack Information on Google MapsDetailed Wind InformationList of All Images || Disaster Info.ResourceGoogle EarthGE AnimationAtom FeedGeoJSON
Detalied Best Track (Time Zone = UTC)
Year Month Day Hour Lat. Long. Pressure (hPa) Wind (kt) Class Image Chart
1992 6 23 12 11.2 130.5 1002 0 2 Image Chart
1992 6 23 18 11.4 130.8 1002 0 2 Image Chart
1992 6 23 21 11.5 130.9 1002 0 2 Image Chart
1992 6 24 00 11.6 131.0 1002 0 2 Image Chart
1992 6 24 03 11.7 131.0 1000 35 3 Image Chart
1992 6 24 06 11.8 131.0 1000 35 3 Image Chart
1992 6 24 12 12.1 130.7 998 40 3 Image Chart
1992 6 24 18 12.8 129.8 996 40 3 Image Chart
1992 6 25 00 13.5 129.2 990 45 3 Image Chart
1992 6 25 03 13.9 128.8 985 50 4 Image Chart
1992 6 25 06 14.3 128.4 985 50 4 Image Chart
1992 6 25 12 14.9 127.7 980 55 4 Image Chart
1992 6 25 18 15.8 126.8 975 60 4 Image Chart
1992 6 25 21 16.3 126.5 970 65 5 Image Chart
1992 6 26 00 16.7 126.2 970 65 5 Image Chart
1992 6 26 06 17.5 125.4 960 70 5 Image Chart
1992 6 26 12 18.2 125.0 950 80 5 Image Chart
1992 6 26 18 19.1 124.3 945 85 5 Image Chart
1992 6 27 00 20.1 124.4 940 90 5 Image Chart
1992 6 27 06 21.2 123.9 940 90 5 Image Chart
1992 6 27 09 21.6 123.8 940 90 5 Image Chart
1992 6 27 12 21.9 123.7 940 90 5 Image Chart
1992 6 27 15 22.4 123.7 945 85 5 Image Chart
1992 6 27 18 22.7 123.8 945 85 5 Image Chart
1992 6 27 21 23.2 124.1 945 85 5 Image Chart
1992 6 28 00 23.7 124.2 945 85 5 Image Chart
1992 6 28 03 24.0 124.4 950 80 5 Image Chart
1992 6 28 06 24.3 124.7 950 80 5 Image Chart
1992 6 28 09 24.6 125.2 950 80 5 Image Chart
1992 6 28 12 24.8 125.7 950 80 5 Image Chart
1992 6 28 15 25.1 126.2 955 75 5 Image Chart
1992 6 28 18 25.4 126.6 955 75 5 Image Chart
1992 6 28 21 25.7 127.2 955 75 5 Image Chart
1992 6 29 00 26.0 127.8 960 75 5 Image Chart
1992 6 29 03 26.3 128.4 960 75 5 Image Chart
1992 6 29 06 26.5 128.8 965 70 5 Image Chart
1992 6 29 09 26.7 129.5 965 70 5 Image Chart
1992 6 29 12 27.1 130.3 970 65 5 Image Chart
1992 6 29 15 27.5 130.9 970 65 5 Image Chart
1992 6 29 18 27.9 131.4 975 60 4 Image Chart
1992 6 29 21 28.4 132.2 975 60 4 Image Chart
1992 6 30 00 28.8 133.1 975 60 4 Image Chart
1992 6 30 03 29.5 134.2 980 55 4 Image Chart
1992 6 30 06 30.6 135.4 980 55 4 Image Chart
1992 6 30 09 31.7 136.6 980 55 4 Image Chart
1992 6 30 12 32.9 138.0 980 55 4 Image Chart
1992 6 30 15 34.2 139.5 980 50 4 Image Chart
1992 6 30 18 35.7 140.7 980 50 4 Image Chart
1992 6 30 21 37.0 142.0 984 0 6 Image Chart
1992 7 1 00 38.0 144.0 984 0 6 Image Chart
1992 7 1 06 40.0 148.0 984 0 6 Image Chart
1992 7 1 12 41.0 151.0 984 0 6 Image Chart
1992 7 1 18 41.0 154.0 984 0 6 Image Chart
1992 7 2 00 41.0 158.0 984 0 6 Image Chart
1992 7 2 06 41.0 163.0 984 0 6 Image Chart
1992 7 2 12 42.0 168.0 988 0 6 Image Chart
1992 7 2 18 43.0 172.0 990 0 6 Image Chart
1992 7 3 00 45.0 176.0 992 0 6 Image Chart
1992 7 3 06 46.0 179.0 992 0 6 Image Chart
1992 7 3 12 49.0 182.0 994 0 6 Image Chart
Japan Meteorological Agency Best Track Data | Correction Date : 1992-12-25
< Typhoon 199202 1992 Season Typhoon 199204 >

Help